createdAt,value
2023-05-06T00:01:17.942Z,33.02
2023-05-06T00:03:44.806Z,33.14
2023-05-06T00:06:12.030Z,32.83
2023-05-06T00:08:38.751Z,33.13
2023-05-06T00:11:05.814Z,33.20
2023-05-06T00:13:32.506Z,32.83
2023-05-06T00:15:59.567Z,32.77
2023-05-06T00:18:26.435Z,33.34
2023-05-06T00:20:53.430Z,33.40
2023-05-06T00:23:20.119Z,33.44
2023-05-06T00:25:47.097Z,33.06
2023-05-06T00:28:13.846Z,33.45
2023-05-06T00:30:40.930Z,33.42
2023-05-06T00:33:07.800Z,33.38
2023-05-06T00:35:35.078Z,33.35
2023-05-06T00:38:13.320Z,33.25
2023-05-06T00:40:40.595Z,33.10
2023-05-06T00:43:07.351Z,33.43
2023-05-06T00:45:34.496Z,33.39
2023-05-06T00:48:01.272Z,33.17
2023-05-06T00:50:28.453Z,33.59
2023-05-06T00:52:56.503Z,33.39
2023-05-06T00:55:23.547Z,33.50
2023-05-06T00:57:51.900Z,33.37
2023-05-06T01:00:19.603Z,33.64
2023-05-06T01:02:49.603Z,33.41
2023-05-06T01:05:17.733Z,33.34
2023-05-06T01:07:50.734Z,33.64
2023-05-06T01:10:23.532Z,33.70
2023-05-06T01:13:07.688Z,33.41
2023-05-06T01:15:34.789Z,33.70
2023-05-06T01:18:02.352Z,33.42
2023-05-06T01:20:30.783Z,33.76
2023-05-06T01:22:57.495Z,33.57
2023-05-06T01:25:24.576Z,33.68
2023-05-06T01:27:51.295Z,33.52
2023-05-06T01:30:18.685Z,33.60
2023-05-06T01:33:00.708Z,33.67
2023-05-06T01:35:38.084Z,33.49
2023-05-06T01:38:10.702Z,33.55
2023-05-06T01:40:37.786Z,33.60
2023-05-06T01:43:05.801Z,33.51
2023-05-06T01:45:34.118Z,33.85
2023-05-06T01:48:00.899Z,33.49
2023-05-06T01:50:28.045Z,33.97
2023-05-06T01:53:02.289Z,34.20
2023-05-06T01:55:29.535Z,33.64
2023-05-06T01:57:59.112Z,33.64
2023-05-06T02:00:26.582Z,34.07
2023-05-06T02:02:53.561Z,34.00
2023-05-06T02:05:20.769Z,34.16
2023-05-06T02:07:47.527Z,34.12
2023-05-06T02:10:14.653Z,34.22
2023-05-06T02:12:41.374Z,34.04
2023-05-06T02:15:09.234Z,34.31
2023-05-06T02:17:37.428Z,34.36
2023-05-06T02:20:06.041Z,34.45
2023-05-06T02:22:32.917Z,34.35
2023-05-06T02:24:59.929Z,34.18
2023-05-06T02:27:26.696Z,34.47
2023-05-06T02:29:54.154Z,34.50
2023-05-06T02:32:21.094Z,34.62
2023-05-06T02:34:48.223Z,34.44
2023-05-06T02:37:14.960Z,34.53
2023-05-06T02:39:41.925Z,34.13
2023-05-06T02:42:08.637Z,34.27
2023-05-06T02:44:35.722Z,34.52
2023-05-06T02:47:02.480Z,34.23
2023-05-06T02:49:29.722Z,34.57
2023-05-06T02:51:56.530Z,34.56
2023-05-06T02:54:23.562Z,34.68
2023-05-06T02:56:50.288Z,34.78
2023-05-06T02:59:17.321Z,34.51
2023-05-06T03:01:44.066Z,34.96
2023-05-06T03:04:11.144Z,34.83
2023-05-06T03:06:37.896Z,35.04
2023-05-06T03:09:05.139Z,35.30
2023-05-06T03:11:32.633Z,35.08
2023-05-06T03:13:59.679Z,34.93
2023-05-06T03:16:26.559Z,35.01
2023-05-06T03:18:53.591Z,34.97
2023-05-06T03:21:20.326Z,35.29
2023-05-06T03:23:47.370Z,35.17
2023-05-06T03:26:14.046Z,35.16
2023-05-06T03:28:42.999Z,35.39
2023-05-06T03:31:09.795Z,35.13
2023-05-06T03:33:37.003Z,35.41
2023-05-06T03:36:04.492Z,35.18
2023-05-06T03:38:31.499Z,34.92
2023-05-06T03:40:58.220Z,35.23
2023-05-06T03:43:25.353Z,35.17
2023-05-06T03:45:52.156Z,35.29
2023-05-06T03:48:19.189Z,35.39
2023-05-06T03:50:45.893Z,35.34
2023-05-06T03:53:13.234Z,35.42
2023-05-06T03:55:39.935Z,35.37
2023-05-06T03:58:07.347Z,35.25
2023-05-06T04:00:34.081Z,35.13
2023-05-06T04:03:01.201Z,35.12
2023-05-06T04:05:27.941Z,35.21
2023-05-06T04:07:55.414Z,35.08
2023-05-06T04:10:22.183Z,35.04
2023-05-06T04:12:49.204Z,35.09
2023-05-06T04:15:16.034Z,35.46
2023-05-06T04:17:43.088Z,35.47
2023-05-06T04:20:11.497Z,35.41
2023-05-06T04:22:38.805Z,35.45
2023-05-06T04:25:06.716Z,35.46
2023-05-06T04:27:33.801Z,35.65
2023-05-06T04:30:00.870Z,35.87
2023-05-06T04:32:28.190Z,35.71
2023-05-06T04:34:55.896Z,36.04
2023-05-06T04:37:23.417Z,35.73
2023-05-06T04:39:50.128Z,35.81
2023-05-06T04:42:17.474Z,35.79
2023-05-06T04:44:44.170Z,35.65
2023-05-06T04:47:11.333Z,35.79
2023-05-06T04:49:38.019Z,36.12
2023-05-06T04:52:05.059Z,36.26
2023-05-06T04:54:31.757Z,35.88
2023-05-06T04:56:58.776Z,36.08
2023-05-06T04:59:25.539Z,35.98
2023-05-06T05:01:52.548Z,35.96
2023-05-06T05:04:19.269Z,36.06
2023-05-06T05:06:46.294Z,35.97
2023-05-06T05:09:13.206Z,35.97
2023-05-06T05:11:40.331Z,36.09
2023-05-06T05:14:07.035Z,36.17
2023-05-06T05:16:34.092Z,36.13
2023-05-06T05:19:03.326Z,36.18
2023-05-06T05:21:30.788Z,35.95
2023-05-06T05:23:57.509Z,36.46
2023-05-06T05:26:24.713Z,36.37
2023-05-06T05:28:51.475Z,36.38
2023-05-06T05:31:18.486Z,36.24
2023-05-06T05:33:45.315Z,36.47
2023-05-06T05:36:15.255Z,36.14
2023-05-06T05:38:41.976Z,36.49
2023-05-06T05:41:09.073Z,36.54
2023-05-06T05:43:35.875Z,36.65
2023-05-06T05:46:03.117Z,36.34
2023-05-06T05:48:32.719Z,36.59
2023-05-06T05:51:02.540Z,36.11
2023-05-06T05:53:29.286Z,36.75
2023-05-06T05:55:56.309Z,36.48
2023-05-06T05:58:23.249Z,36.67
2023-05-06T06:00:50.358Z,36.72
2023-05-06T06:03:18.181Z,36.61
2023-05-06T06:05:45.264Z,36.41
2023-05-06T06:08:11.973Z,36.38
2023-05-06T06:10:39.019Z,36.31
2023-05-06T06:13:06.172Z,36.55
2023-05-06T06:15:33.229Z,36.64
2023-05-06T06:17:59.976Z,36.50
2023-05-06T06:20:27.106Z,36.68
2023-05-06T06:22:53.840Z,36.20
2023-05-06T06:25:21.706Z,36.01
2023-05-06T06:27:48.517Z,36.48
2023-05-06T06:30:15.777Z,36.29
2023-05-06T06:32:50.373Z,36.09
2023-05-06T06:35:17.690Z,35.80
2023-05-06T06:37:44.490Z,35.83
2023-05-06T06:40:12.126Z,35.97
2023-05-06T06:42:38.852Z,35.84
2023-05-06T06:45:08.069Z,36.26
2023-05-06T06:47:35.462Z,36.37
2023-05-06T06:50:02.926Z,36.45
2023-05-06T06:52:29.950Z,36.50
2023-05-06T06:54:56.983Z,36.21
2023-05-06T06:57:23.711Z,36.08
2023-05-06T06:59:52.523Z,35.94
2023-05-06T07:02:20.223Z,36.30
2023-05-06T07:04:47.276Z,36.17
2023-05-06T07:07:14.159Z,36.02
2023-05-06T07:09:41.268Z,36.27
2023-05-06T07:12:08.120Z,36.01
2023-05-06T07:14:35.112Z,35.59
2023-05-06T07:17:01.954Z,35.87
2023-05-06T07:19:29.401Z,36.09
2023-05-06T07:21:56.939Z,36.03
2023-05-06T07:24:23.975Z,35.82
2023-05-06T07:26:50.731Z,36.09
2023-05-06T07:29:17.730Z,35.93
2023-05-06T07:31:44.483Z,35.53
2023-05-06T07:34:11.784Z,35.39
2023-05-06T07:36:43.344Z,36.09
2023-05-06T07:39:10.958Z,35.58
2023-05-06T07:41:37.683Z,35.69
2023-05-06T07:44:05.024Z,35.73
2023-05-06T07:46:32.047Z,35.74
2023-05-06T07:48:59.185Z,35.40
2023-05-06T07:51:26.851Z,35.58
2023-05-06T07:53:53.918Z,35.94
2023-05-06T07:56:20.745Z,35.89
2023-05-06T07:58:49.344Z,35.76
2023-05-06T08:01:16.419Z,35.88
2023-05-06T08:03:44.067Z,36.25
2023-05-06T08:06:10.888Z,36.09
2023-05-06T08:08:37.914Z,36.12
2023-05-06T08:11:04.927Z,35.80
2023-05-06T08:13:33.517Z,35.33
2023-05-06T08:16:02.382Z,35.54
2023-05-06T08:18:30.024Z,35.87
2023-05-06T08:20:56.912Z,35.84
2023-05-06T08:23:24.061Z,35.47
2023-05-06T08:25:50.836Z,35.61
2023-05-06T08:28:17.926Z,35.40
2023-05-06T08:30:47.669Z,35.29
2023-05-06T08:33:14.730Z,35.31
2023-05-06T08:35:41.416Z,35.01
2023-05-06T08:38:08.431Z,35.21
2023-05-06T08:40:35.201Z,35.20
2023-05-06T08:43:02.658Z,35.53
2023-05-06T08:45:29.732Z,35.21
2023-05-06T08:47:56.873Z,35.17
2023-05-06T08:50:23.829Z,35.04
2023-05-06T08:52:51.129Z,35.39
2023-05-06T08:55:17.834Z,35.81
2023-05-06T08:57:44.908Z,35.22
2023-05-06T09:00:12.095Z,35.32
2023-05-06T09:02:42.703Z,35.05
2023-05-06T09:05:10.174Z,35.29
2023-05-06T09:07:37.882Z,34.99
2023-05-06T09:10:14.245Z,34.96
2023-05-06T09:12:41.641Z,35.14
2023-05-06T09:15:09.631Z,35.06
2023-05-06T09:17:36.967Z,35.08
2023-05-06T09:20:06.350Z,35.06
2023-05-06T09:22:33.381Z,34.93
2023-05-06T09:25:00.252Z,35.23
2023-05-06T09:27:28.712Z,35.34
2023-05-06T09:30:02.891Z,35.34
2023-05-06T09:32:30.070Z,35.28
2023-05-06T09:34:56.927Z,35.64
2023-05-06T09:37:26.248Z,35.60
2023-05-06T09:39:57.360Z,35.52
2023-05-06T09:42:25.458Z,35.58
2023-05-06T09:45:04.820Z,35.75
2023-05-06T09:47:35.415Z,35.58
2023-05-06T09:50:02.949Z,36.15
2023-05-06T09:52:30.266Z,36.05
2023-05-06T09:54:57.136Z,36.27
2023-05-06T09:57:24.350Z,36.53
2023-05-06T09:59:52.295Z,36.26
2023-05-06T10:02:20.050Z,36.07
2023-05-06T10:04:47.182Z,36.25
2023-05-06T10:07:14.274Z,36.62
2023-05-06T10:09:41.496Z,36.85
2023-05-06T10:12:08.807Z,36.59
2023-05-06T10:14:38.538Z,36.74
2023-05-06T10:17:07.794Z,37.15
2023-05-06T10:19:35.041Z,37.05
2023-05-06T10:22:34.375Z,37.65
2023-05-06T10:25:22.228Z,37.64
2023-05-06T10:27:49.268Z,37.25
2023-05-06T10:30:19.397Z,37.28
2023-05-06T10:32:46.508Z,37.45
2023-05-06T10:35:26.911Z,37.70
2023-05-06T10:37:53.947Z,37.74
2023-05-06T10:40:20.709Z,37.25
2023-05-06T10:42:48.036Z,37.48
2023-05-06T10:45:16.633Z,37.59
2023-05-06T10:47:52.913Z,36.98
2023-05-06T10:50:26.875Z,38.19
2023-05-06T10:52:57.822Z,38.14
2023-05-06T10:55:28.276Z,38.43
2023-05-06T10:58:06.987Z,37.87
2023-05-06T11:00:34.506Z,38.04
2023-05-06T11:03:02.910Z,37.66
2023-05-06T11:05:29.826Z,37.89
2023-05-06T11:08:09.119Z,37.85
2023-05-06T11:10:36.382Z,37.81
2023-05-06T11:13:20.004Z,38.19
2023-05-06T11:15:47.364Z,38.58
2023-05-06T11:18:27.626Z,38.89
2023-05-06T11:21:03.649Z,39.58
2023-05-06T11:23:43.416Z,39.37
2023-05-06T11:26:10.415Z,39.20
2023-05-06T11:28:37.888Z,38.85
2023-05-06T11:31:04.750Z,38.54
2023-05-06T11:33:36.048Z,38.18
2023-05-06T11:36:03.889Z,37.83
2023-05-06T11:38:52.838Z,37.78
2023-05-06T11:41:21.796Z,38.08
2023-05-06T11:43:52.103Z,37.73
2023-05-06T11:46:19.398Z,37.73
2023-05-06T11:48:46.704Z,37.75
2023-05-06T11:51:13.505Z,37.76
2023-05-06T11:53:40.631Z,37.65
2023-05-06T11:56:07.704Z,37.45
2023-05-06T11:58:34.743Z,37.34
2023-05-06T12:01:02.693Z,37.28
2023-05-06T12:03:31.495Z,37.55
2023-05-06T12:05:58.499Z,37.24
2023-05-06T12:08:29.978Z,37.36
2023-05-06T12:10:59.414Z,37.18
2023-05-06T12:13:27.124Z,37.13
2023-05-06T12:15:58.672Z,37.31
2023-05-06T12:18:26.072Z,37.24
2023-05-06T12:20:56.386Z,37.17
2023-05-06T12:23:23.600Z,37.29
2023-05-06T12:26:06.624Z,37.34
2023-05-06T12:28:35.993Z,37.09
2023-05-06T12:31:38.467Z,37.40
2023-05-06T12:34:05.905Z,37.55
2023-05-06T12:36:33.124Z,37.53
2023-05-06T12:39:01.214Z,37.75
2023-05-06T12:41:41.247Z,37.70
2023-05-06T12:44:31.216Z,37.53
2023-05-06T12:46:59.073Z,37.88
2023-05-06T12:49:26.120Z,37.69
2023-05-06T12:52:11.378Z,37.79
2023-05-06T12:54:38.615Z,37.52
2023-05-06T12:57:05.739Z,38.08
2023-05-06T12:59:33.137Z,37.98
2023-05-06T13:02:00.019Z,38.21
2023-05-06T13:04:27.427Z,38.09
2023-05-06T13:06:54.361Z,37.83
2023-05-06T13:09:21.743Z,38.05
2023-05-06T13:11:48.515Z,38.31
2023-05-06T13:14:16.380Z,38.01
2023-05-06T13:16:43.917Z,38.30
2023-05-06T13:19:21.257Z,37.87
2023-05-06T13:21:51.808Z,37.47
2023-05-06T13:24:19.174Z,37.81
2023-05-06T13:26:46.129Z,37.70
2023-05-06T13:29:13.185Z,37.77
2023-05-06T13:31:40.256Z,37.37
2023-05-06T13:34:07.381Z,37.76
2023-05-06T13:36:34.123Z,37.88
2023-05-06T13:39:01.288Z,37.65
2023-05-06T13:41:28.070Z,37.78
2023-05-06T13:43:55.145Z,37.58
2023-05-06T13:46:23.166Z,37.49
2023-05-06T13:48:50.245Z,37.55
2023-05-06T13:51:17.377Z,37.43
2023-05-06T13:53:44.473Z,37.58
2023-05-06T13:56:11.242Z,37.67
2023-05-06T13:58:38.249Z,37.59
2023-05-06T14:01:05.098Z,37.41
2023-05-06T14:03:32.195Z,37.55
2023-05-06T14:05:59.019Z,37.47
2023-05-06T14:08:26.185Z,37.46
2023-05-06T14:10:52.883Z,37.39
2023-05-06T14:13:19.971Z,37.48
2023-05-06T14:15:46.858Z,37.45
2023-05-06T14:18:13.999Z,37.20
2023-05-06T14:20:41.988Z,38.63
2023-05-06T14:23:09.050Z,37.33
2023-05-06T14:25:35.900Z,38.40
2023-05-06T14:28:03.055Z,38.60
2023-05-06T14:30:31.115Z,38.58
2023-05-06T14:32:58.845Z,38.78
2023-05-06T14:35:25.711Z,38.88
2023-05-06T14:37:53.174Z,38.75
2023-05-06T14:40:20.018Z,38.81
2023-05-06T14:42:47.112Z,38.90
2023-05-06T14:45:14.053Z,39.11
2023-05-06T14:47:41.272Z,38.89
2023-05-06T14:50:09.393Z,39.29
2023-05-06T14:52:37.671Z,38.81
2023-05-06T14:55:08.740Z,39.12
2023-05-06T14:57:36.008Z,39.18
2023-05-06T15:00:04.924Z,39.00
2023-05-06T15:02:32.540Z,38.78
2023-05-06T15:05:00.337Z,38.72
2023-05-06T15:07:28.701Z,37.98
2023-05-06T15:09:55.466Z,37.58
2023-05-06T15:12:22.513Z,37.84
2023-05-06T15:14:49.261Z,37.48
2023-05-06T15:17:16.305Z,38.41
2023-05-06T15:19:43.160Z,37.74
2023-05-06T15:22:10.247Z,37.93
2023-05-06T15:24:37.081Z,37.61
2023-05-06T15:27:04.132Z,37.73
2023-05-06T15:29:31.131Z,37.79
2023-05-06T15:31:58.342Z,37.44
2023-05-06T15:34:25.242Z,37.88
2023-05-06T15:36:53.075Z,37.67
2023-05-06T15:39:19.987Z,37.90
2023-05-06T15:41:47.306Z,37.89
2023-05-06T15:44:16.303Z,37.25
2023-05-06T15:46:43.775Z,37.46
2023-05-06T15:49:33.663Z,38.65
2023-05-06T15:52:00.617Z,37.72
2023-05-06T15:54:28.144Z,37.89
2023-05-06T15:56:56.368Z,37.80
2023-05-06T15:59:23.350Z,38.01
2023-05-06T16:02:25.655Z,37.95
2023-05-06T16:04:37.554Z,38.01
2023-05-06T16:07:04.861Z,38.25
2023-05-06T16:09:31.577Z,38.73
2023-05-06T16:11:58.724Z,38.48
2023-05-06T16:14:25.471Z,38.27
2023-05-06T16:16:52.658Z,38.89
2023-05-06T16:19:19.504Z,38.46
2023-05-06T16:21:46.663Z,38.67
2023-05-06T16:24:13.534Z,38.70
2023-05-06T16:26:41.367Z,38.40
2023-05-06T16:29:08.218Z,38.50
2023-05-06T16:31:36.952Z,38.55
2023-05-06T16:34:03.814Z,38.90
2023-05-06T16:36:31.530Z,38.81
2023-05-06T16:38:58.321Z,39.26
2023-05-06T16:41:25.494Z,38.92
2023-05-06T16:43:52.311Z,38.88
2023-05-06T16:46:20.161Z,39.51
2023-05-06T16:48:48.394Z,39.42
2023-05-06T16:51:16.469Z,38.98
2023-05-06T16:53:43.406Z,38.94
2023-05-06T16:56:10.949Z,38.93
2023-05-06T16:58:37.808Z,38.84
2023-05-06T17:01:07.980Z,39.15
2023-05-06T17:03:37.840Z,38.55
2023-05-06T17:06:05.309Z,38.89
2023-05-06T17:08:36.039Z,39.33
2023-05-06T17:11:07.223Z,39.02
2023-05-06T17:13:34.629Z,38.97
2023-05-06T17:16:01.796Z,38.45
2023-05-06T17:18:28.557Z,38.82
2023-05-06T17:20:57.354Z,38.94
2023-05-06T17:23:24.569Z,38.84
2023-05-06T17:25:51.664Z,39.09
2023-05-06T17:28:19.064Z,39.04
2023-05-06T17:30:46.805Z,39.08
2023-05-06T17:33:13.705Z,38.82
2023-05-06T17:35:40.836Z,38.98
2023-05-06T17:38:07.973Z,38.94
2023-05-06T17:40:35.076Z,38.81
2023-05-06T17:43:02.020Z,39.02
2023-05-06T17:45:29.259Z,39.22
2023-05-06T17:47:56.493Z,39.19
2023-05-06T17:50:23.833Z,38.83
2023-05-06T17:52:52.909Z,39.05
2023-05-06T17:55:23.900Z,38.80
2023-05-06T17:57:52.573Z,38.50
2023-05-06T18:00:19.946Z,38.77
2023-05-06T18:02:47.040Z,38.64
2023-05-06T18:05:14.407Z,39.04
2023-05-06T18:07:41.759Z,38.93
2023-05-06T18:10:09.387Z,38.67
2023-05-06T18:12:36.352Z,38.73
2023-05-06T18:15:03.654Z,38.57
2023-05-06T18:17:31.676Z,38.62
2023-05-06T18:19:58.845Z,38.74
2023-05-06T18:22:25.704Z,38.55
2023-05-06T18:24:55.325Z,38.84
2023-05-06T18:27:22.684Z,38.97
2023-05-06T18:29:49.762Z,38.72
2023-05-06T18:32:17.469Z,38.98
2023-05-06T18:34:44.548Z,38.64
2023-05-06T18:37:11.436Z,38.74
2023-05-06T18:39:42.143Z,38.63
2023-05-06T18:42:09.685Z,38.85
2023-05-06T18:44:36.980Z,38.73
2023-05-06T18:47:03.809Z,38.96
2023-05-06T18:49:31.380Z,39.00
2023-05-06T18:51:59.454Z,39.28
2023-05-06T18:54:27.104Z,39.00
2023-05-06T18:56:54.907Z,39.15
2023-05-06T18:59:22.307Z,39.06
2023-05-06T19:01:49.175Z,38.62
2023-05-06T19:04:16.379Z,39.18
2023-05-06T19:06:43.260Z,39.25
2023-05-06T19:09:11.335Z,39.35
2023-05-06T19:11:38.387Z,39.11
2023-05-06T19:14:09.943Z,39.70
2023-05-06T19:16:38.038Z,39.79
2023-05-06T19:19:08.321Z,39.59
2023-05-06T19:21:38.796Z,39.25
2023-05-06T19:24:06.416Z,39.40
2023-05-06T19:26:33.276Z,39.13
2023-05-06T19:29:00.457Z,39.62
2023-05-06T19:31:27.327Z,39.34
2023-05-06T19:33:54.505Z,39.69
2023-05-06T19:36:21.429Z,39.22
2023-05-06T19:38:48.647Z,39.43
2023-05-06T19:41:15.475Z,39.63
2023-05-06T19:43:44.280Z,39.45
2023-05-06T19:46:11.717Z,39.29
2023-05-06T19:48:41.733Z,39.91
2023-05-06T19:51:10.035Z,39.33
2023-05-06T19:53:37.299Z,39.75
2023-05-06T19:56:33.678Z,39.96
2023-05-06T19:59:01.442Z,39.55
2023-05-06T20:01:28.642Z,39.44
2023-05-06T20:03:56.455Z,39.76
2023-05-06T20:06:24.787Z,39.75
2023-05-06T20:08:51.952Z,39.63
2023-05-06T20:11:18.838Z,39.46
2023-05-06T20:13:45.973Z,39.63
2023-05-06T20:16:12.856Z,39.20
2023-05-06T20:18:40.661Z,39.51
2023-05-06T20:21:08.151Z,39.62
2023-05-06T20:23:35.250Z,39.60
2023-05-06T20:26:02.632Z,39.26
2023-05-06T20:28:31.473Z,39.34
2023-05-06T20:30:59.924Z,39.41
2023-05-06T20:33:27.149Z,39.39
2023-05-06T20:35:53.972Z,39.75
2023-05-06T20:38:21.551Z,39.47
2023-05-06T20:40:48.409Z,39.32
2023-05-06T20:43:15.792Z,39.84
2023-05-06T20:45:42.667Z,39.73
2023-05-06T20:48:09.832Z,39.82
2023-05-06T20:50:37.743Z,39.66
2023-05-06T20:53:05.443Z,39.75
2023-05-06T20:55:34.639Z,39.55
2023-05-06T20:58:01.737Z,39.76
2023-05-06T21:00:28.645Z,39.97
2023-05-06T21:02:56.201Z,39.95
2023-05-06T21:05:23.303Z,40.04
2023-05-06T21:07:50.554Z,39.97
2023-05-06T21:10:17.441Z,39.92
2023-05-06T21:12:48.453Z,39.65
2023-05-06T21:15:15.383Z,39.54
2023-05-06T21:17:43.072Z,39.80
2023-05-06T21:20:10.578Z,40.16
2023-05-06T21:22:37.900Z,39.71
2023-05-06T21:25:05.403Z,39.54
2023-05-06T21:27:32.557Z,39.54
2023-05-06T21:29:59.336Z,39.50
2023-05-06T21:32:26.435Z,39.59
2023-05-06T21:34:53.272Z,39.94
2023-05-06T21:37:20.450Z,39.83
2023-05-06T21:39:47.322Z,39.84
2023-05-06T21:42:14.422Z,39.85
2023-05-06T21:44:41.228Z,39.93
2023-05-06T21:47:08.543Z,40.00
2023-05-06T21:49:35.311Z,40.19
2023-05-06T21:52:02.296Z,40.02
2023-05-06T21:54:31.542Z,40.01
2023-05-06T21:56:58.635Z,39.95
2023-05-06T21:59:25.392Z,40.06
2023-05-06T22:01:52.438Z,39.97
2023-05-06T22:04:20.907Z,40.22
2023-05-06T22:06:48.010Z,40.26
2023-05-06T22:09:14.750Z,39.86
2023-05-06T22:11:41.810Z,40.09
2023-05-06T22:14:09.467Z,39.74
2023-05-06T22:16:38.171Z,40.20
2023-05-06T22:19:06.270Z,39.90
2023-05-06T22:21:34.576Z,40.24
2023-05-06T22:24:01.408Z,40.23
2023-05-06T22:26:28.723Z,40.40
2023-05-06T22:28:56.272Z,40.18
2023-05-06T22:31:24.675Z,40.38
2023-05-06T22:33:57.856Z,40.26
2023-05-06T22:36:29.290Z,40.55
2023-05-06T22:38:56.349Z,40.09
2023-05-06T22:41:23.423Z,40.27
2023-05-06T22:43:50.124Z,40.43
2023-05-06T22:46:17.221Z,40.25
2023-05-06T22:48:47.124Z,40.54
2023-05-06T22:51:15.787Z,40.20
2023-05-06T22:53:42.612Z,40.36
2023-05-06T22:56:09.658Z,40.74
2023-05-06T22:58:36.564Z,40.84
2023-05-06T23:01:03.711Z,40.93
2023-05-06T23:03:30.491Z,40.68
2023-05-06T23:05:57.577Z,40.45
2023-05-06T23:08:24.313Z,40.64
2023-05-06T23:10:51.336Z,40.82
2023-05-06T23:13:18.089Z,40.79
2023-05-06T23:15:45.155Z,41.02
2023-05-06T23:18:11.855Z,40.95
2023-05-06T23:20:38.941Z,40.82
2023-05-06T23:23:06.825Z,40.58
2023-05-06T23:25:33.895Z,40.65
2023-05-06T23:28:00.604Z,40.83
2023-05-06T23:30:27.657Z,40.83
2023-05-06T23:32:54.387Z,40.81
2023-05-06T23:35:21.452Z,40.68
2023-05-06T23:37:48.202Z,40.87
2023-05-06T23:40:15.329Z,40.94
2023-05-06T23:42:42.051Z,40.90
2023-05-06T23:45:09.818Z,40.80
2023-05-06T23:47:36.713Z,40.79
2023-05-06T23:50:03.959Z,40.58
2023-05-06T23:52:30.772Z,40.56
2023-05-06T23:54:57.797Z,40.75
2023-05-06T23:57:24.495Z,40.91
2023-05-06T23:59:51.601Z,41.10
